Time;durP1;ratioP1;P1;durP2;ratioP2;P2;SDS_P1;SDS_P2;PMS_P1;PMS_P2;Temp;Humidity;BMP_temperature;BMP_pressure;BME280_temperature;BME280_humidity;BME280_pressure;Samples;Min_cycle;Max_cycle;Signal;HPM_P1;HPM_P2
2022/06/03 00:04:54;;;;;;;;;;;;;;;10.22;74.37;99691.11;4101246;85;20438;-84
2022/06/03 00:45:54;;;;;;;;;;;;;;;9.48;76.18;99683.20;4105759;85;20124;-85
2022/06/03 00:52:38;;;;;;;;;;;;;;;9.33;76.48;99681.22;3895811;90;20532;-85
2022/06/03 01:12:37;;;;;;;;;;;;;;;9.07;77.37;99678.73;3904142;90;20248;-85
2022/06/03 01:19:10;;;;;;;;;;;;;;;8.98;78.49;99674.00;3907563;90;20517;-85
2022/06/03 01:26:11;;;;;;;;;;;;;;;8.94;78.07;99677.99;4002039;87;20122;-85
2022/06/03 01:39:49;;;;;;;;;;;;;;;8.72;78.43;99680.47;3947706;89;20441;-85
2022/06/03 01:46:24;;;;;;;;;;;;;;;8.59;78.24;99690.63;3905933;87;20531;-86
2022/06/03 01:52:58;;;;;;;;;;;;;;;8.64;79.49;99699.95;4066950;87;20116;-85
2022/06/03 02:00:03;;;;;;;;;;;;;;;8.60;79.40;99694.94;4097758;85;20135;-85
2022/06/03 02:06:29;;;;;;;;;;;;;;;8.50;79.03;99696.80;4046401;87;20173;-85
2022/06/03 02:19:39;;;;;;;;;;;;;;;8.26;79.55;99703.64;4101679;85;20165;-85
2022/06/03 02:25:54;;;;;;;;;;;;;;;8.19;80.09;99707.46;4170799;85;20162;-85
2022/06/03 02:32:08;;;;;;;;;;;;;;;8.10;80.03;99711.47;4128153;85;20188;-85
2022/06/03 02:38:33;;;;;;;;;;;;;;;8.06;80.24;99714.08;4129164;85;20259;-85
2022/06/03 02:45:12;;;;;;;;;;;;;;;8.03;80.83;99723.71;4123666;85;20171;-83
2022/06/03 02:51:27;;;;;;;;;;;;;;;7.99;80.94;99713.27;4070146;85;20189;-85
2022/06/03 02:58:11;;;;;;;;;;;;;;;8.00;81.34;99722.26;3950216;90;20207;-85
2022/06/03 03:04:50;;;;;;;;;;;;;;;7.99;81.40;99720.64;3953403;90;20126;-85
2022/06/03 03:18:06;;;;;;;;;;;;;;;7.84;81.24;99736.32;3971284;87;20201;-86
2022/06/03 03:24:38;;;;;;;;;;;;;;;7.80;81.46;99742.20;4057373;87;20191;-87
2022/06/03 03:45:13;;;;;;;;;;;;;;;7.88;82.62;99731.77;4052768;87;20158;-87
2022/06/03 03:51:26;;;;;;;;;;;;;;;8.15;83.23;99731.67;4093053;85;20112;-86
2022/06/03 03:57:55;;;;;;;;;;;;;;;8.20;83.63;99739.63;4121203;85;20162;-87
2022/06/03 04:17:30;;;;;;;;;;;;;;;9.13;83.50;99750.52;4133952;85;20175;-86
2022/06/03 04:23:54;;;;;;;;;;;;;;;9.20;83.44;99756.77;4119268;85;20138;-83
2022/06/03 04:30:19;;;;;;;;;;;;;;;9.45;83.73;99755.52;4064016;86;20232;-86
2022/06/03 04:36:39;;;;;;;;;;;;;;;9.65;83.41;99754.50;4056450;87;20130;-84
2022/06/03 04:49:47;;;;;;;;;;;;;;;10.11;83.32;99759.83;4033317;86;20161;-86
2022/06/03 05:10:10;;;;;;;;;;;;;;;10.83;82.72;99750.97;4089344;86;20218;-87
2022/06/03 05:16:36;;;;;;;;;;;;;;;11.09;82.92;99763.47;4089445;86;20163;-86
2022/06/03 05:30:21;;;;;;;;;;;;;;;11.76;83.40;99774.45;3917427;91;20438;-85
2022/06/03 05:36:29;;;;;;;;;;;;;;;12.22;83.39;99775.47;3989278;88;20151;-86
2022/06/03 05:42:43;;;;;;;;;;;;;;;12.63;83.20;99766.33;4055693;87;20148;-87
2022/06/03 06:02:28;;;;;;;;;;;;;;;13.74;80.89;99762.67;4115701;85;20521;-87
2022/06/03 06:35:50;;;;;;;;;;;;;;;15.90;76.93;99733.89;3857851;91;20573;-85
2022/06/03 06:42:16;;;;;;;;;;;;;;;16.32;75.36;99747.14;3869195;90;20158;-87
2022/06/03 06:48:32;;;;;;;;;;;;;;;16.94;74.87;99741.97;3941188;88;20163;-84
2022/06/03 06:55:15;;;;;;;;;;;;;;;17.54;73.89;99742.54;4041358;87;20772;-85
2022/06/03 07:01:20;;;;;;;;;;;;;;;18.43;71.47;99737.39;4024741;87;20192;-87
2022/06/03 07:21:39;;;;;;;;;;;;;;;20.18;54.00;99713.66;4049049;86;20198;-87
2022/06/03 07:28:02;;;;;;;;;;;;;;;20.83;56.72;99721.07;4004954;87;20151;-86
2022/06/03 07:34:07;;;;;;;;;;;;;;;21.26;58.09;99709.30;4045562;87;20910;-87
2022/06/03 07:40:17;;;;;;;;;;;;;;;21.68;57.72;99715.34;3968075;88;20157;-89
2022/06/03 07:46:22;;;;;;;;;;;;;;;21.94;52.30;99712.20;3968058;88;20595;-87
2022/06/03 07:52:33;;;;;;;;;;;;;;;22.11;55.28;99715.17;3938419;87;20185;-87
2022/06/03 07:58:37;;;;;;;;;;;;;;;22.32;54.46;99712.64;4005233;87;20301;-86
2022/06/03 08:04:39;;;;;;;;;;;;;;;22.15;49.37;99701.92;4123979;85;20112;-87
2022/06/03 08:10:58;;;;;;;;;;;;;;;22.27;52.47;99697.06;4130113;85;20178;-86
2022/06/03 08:17:00;;;;;;;;;;;;;;;22.53;52.02;99697.41;4120919;85;20134;-86
2022/06/03 08:23:03;;;;;;;;;;;;;;;22.51;48.73;99685.86;4134386;84;20151;-86
2022/06/03 08:29:28;;;;;;;;;;;;;;;22.70;50.96;99687.17;4119211;85;20183;-86
2022/06/03 08:35:35;;;;;;;;;;;;;;;22.96;49.92;99686.64;4126299;85;20512;-86
2022/06/03 08:41:54;;;;;;;;;;;;;;;22.71;46.56;99690.73;4124485;85;20801;-87
2022/06/03 08:47:58;;;;;;;;;;;;;;;22.73;43.77;99686.89;4114575;85;20105;-87
2022/06/03 08:54:03;;;;;;;;;;;;;;;22.61;45.94;99684.84;4088306;85;20173;-87
2022/06/03 09:00:16;;;;;;;;;;;;;;;22.54;43.08;99681.62;4070026;86;20127;-87
2022/06/03 09:06:21;;;;;;;;;;;;;;;22.64;43.52;99681.17;4066848;86;20127;-85
2022/06/03 09:12:58;;;;;;;;;;;;;;;22.94;43.78;99675.92;4070012;86;20570;-86
2022/06/03 09:19:04;;;;;;;;;;;;;;;22.97;43.70;99668.69;4078826;86;20459;-86
2022/06/03 09:25:10;;;;;;;;;;;;;;;23.16;45.26;99659.36;4070360;86;20573;-86
2022/06/03 09:31:10;;;;;;;;;;;;;;;23.59;44.86;99663.86;4070864;86;20222;-87
2022/06/03 09:37:15;;;;;;;;;;;;;;;23.92;44.72;99662.41;4066567;86;20151;-85
2022/06/03 09:43:35;;;;;;;;;;;;;;;24.28;42.74;99654.44;4069814;85;20132;-85
2022/06/03 09:49:36;;;;;;;;;;;;;;;24.64;44.42;99651.97;4066797;86;20171;-86
2022/06/03 10:01:51;;;;;;;;;;;;;;;24.89;40.41;99657.31;4055742;86;20195;-86
2022/06/03 10:08:02;;;;;;;;;;;;;;;24.85;40.52;99651.86;4062381;86;20863;-85
2022/06/03 10:19:44;;;;;;;2.12;1.40;;;;;;;25.62;41.19;99637.70;4558173;77;22837;-85
2022/06/03 10:26:11;;;;;;;1.35;1.12;;;;;;;25.71;40.53;99637.75;4436034;78;21062;-85
2022/06/03 10:32:33;;;;;;;2.42;1.52;;;;;;;26.18;40.59;99638.20;4445990;78;21534;-87
2022/06/03 10:38:37;;;;;;;1.95;1.00;;;;;;;26.60;40.71;99620.17;4411788;79;21014;-85
2022/06/03 10:44:48;;;;;;;10.10;1.95;;;;;;;26.76;36.70;99617.09;4265142;81;21052;-86
2022/06/03 10:50:50;;;;;;;3.40;1.40;;;;;;;26.73;39.04;99615.22;4338049;80;21042;-84
2022/06/03 11:04:27;;;;;;;1.87;1.47;;;;;;;27.21;39.37;99593.11;4275968;82;21806;-86
2022/06/03 11:11:02;;;;;;;2.67;1.27;;;;;;;27.44;35.79;99595.86;4317425;82;21817;-83
2022/06/03 11:17:23;;;;;;;1.95;1.30;;;;;;;27.71;37.93;99601.99;4266371;82;20997;-85
2022/06/03 11:23:34;;;;;;;2.70;1.60;;;;;;;28.21;37.57;99594.85;4246989;82;21011;-86
2022/06/03 11:29:53;;;;;;;5.30;1.27;;;;;;;28.61;36.60;99573.30;4266207;82;21083;-85
2022/06/03 11:36:58;;;;;;;3.67;1.47;;;;;;;28.81;36.99;99574.20;4415399;79;21012;-84
2022/06/03 11:49:45;;;;;;;1.27;1.17;;;;;;;28.72;35.33;99564.41;4414226;79;21011;-85
2022/06/03 11:56:04;;;;;;;1.30;1.20;;;;;;;28.90;35.22;99558.60;4416042;79;20951;-85
2022/06/03 12:02:33;;;;;;;1.67;1.22;;;;;;;28.77;35.06;99558.75;4357763;82;21000;-86
2022/06/03 12:21:55;;;;;;;2.40;1.60;;;;;;;27.67;33.95;99515.00;4287315;81;21008;-83
2022/06/03 12:28:31;;;;;;;1.67;1.40;;;;;;;27.14;32.54;99516.16;4241660;82;21702;-83
2022/06/03 12:34:53;;;;;;;3.15;1.67;;;;;;;26.77;32.98;99502.70;4232664;82;21072;-85
2022/06/03 12:41:09;;;;;;;3.58;1.52;;;;;;;26.34;34.04;99500.26;4273143;81;20984;-84
2022/06/03 12:47:34;;;;;;;1.85;1.50;;;;;;;26.16;34.19;99484.20;4285158;81;21631;-84
2022/06/03 12:53:41;;;;;;;2.55;1.60;;;;;;;25.92;34.27;99479.02;4390674;80;20975;-86
2022/06/03 12:59:55;;;;;;;1.72;1.55;;;;;;;25.86;35.25;99471.86;4339909;79;20951;-85
2022/06/03 13:06:10;;;;;;;2.70;1.80;;;;;;;25.78;33.79;99458.59;4402990;80;20991;-85
2022/06/03 13:12:27;;;;;;;2.12;1.55;;;;;;;25.63;35.00;99453.45;4364330;79;21035;-85
2022/06/03 13:18:43;;;;;;;5.65;1.62;;;;;;;25.61;35.39;99444.72;4388563;79;20997;-84
2022/06/03 13:24:55;;;;;;;2.02;1.60;;;;;;;25.52;35.14;99441.30;4414055;79;20952;-86
2022/06/03 13:31:26;;;;;;;3.72;1.50;;;;;;;25.51;35.38;99429.91;4410561;80;21590;-85
2022/06/03 13:38:05;;;;;;;1.52;1.40;;;;;;;25.39;35.82;99428.64;4417567;80;21023;-87
2022/06/03 13:44:19;;;;;;;1.92;1.45;;;;;;;25.39;35.90;99421.64;4385722;79;20975;-86
2022/06/03 13:50:35;;;;;;;4.05;1.77;;;;;;;25.45;35.39;99418.41;4397978;80;21008;-86
2022/06/03 13:56:37;;;;;;;3.80;1.82;;;;;;;25.32;35.90;99408.70;4417336;80;21047;-85
2022/06/03 14:02:41;;;;;;;1.90;1.70;;;;;;;25.36;35.98;99400.16;4412201;79;20984;-86
2022/06/03 14:09:35;;;;;;;1.87;1.50;;;;;;;25.52;36.23;99390.84;4441999;79;21003;-87
2022/06/03 14:16:07;;;;;;;2.90;1.40;;;;;;;25.63;36.47;99377.15;4419947;78;21018;-86
2022/06/03 14:22:36;;;;;;;2.70;1.85;;;;;;;25.70;36.54;99381.02;4422352;79;21050;-86
2022/06/03 14:28:58;;;;;;;2.22;1.82;;;;;;;25.71;36.32;99372.79;4429628;79;21010;-86
2022/06/03 14:35:11;;;;;;;1.95;1.40;;;;;;;25.73;36.37;99371.67;4362352;79;21549;-87
2022/06/03 14:41:27;;;;;;;1.95;1.50;;;;;;;25.67;36.25;99367.95;4436656;80;21042;-86
2022/06/03 14:47:40;;;;;;;2.50;1.50;;;;;;;25.52;36.81;99359.23;4398194;79;21012;-84
2022/06/03 14:53:57;;;;;;;1.95;1.50;;;;;;;25.54;36.77;99362.34;4422514;79;21507;-84
2022/06/03 15:00:18;;;;;;;6.42;2.12;;;;;;;25.51;36.77;99354.23;4411668;79;21556;-85
2022/06/03 15:06:34;;;;;;;2.47;1.60;;;;;;;25.46;36.84;99340.86;4421311;79;21049;-85
2022/06/03 15:12:39;;;;;;;3.23;1.23;;;;;;;25.40;37.00;99313.28;4416306;79;20995;-85
2022/06/03 15:18:48;;;;;;;1.70;1.53;;;;;;;25.45;36.81;99330.13;4382325;78;21091;-85
2022/06/03 15:25:16;;;;;;;2.62;1.50;;;;;;;25.34;37.11;99323.56;4277030;81;21003;-85
2022/06/03 15:31:26;;;;;;;2.62;1.80;;;;;;;25.31;36.64;99306.89;4256919;81;21047;-85
2022/06/03 15:37:29;;;;;;;3.37;1.80;;;;;;;25.14;36.39;99312.61;4252046;81;21008;-85
2022/06/03 15:43:44;;;;;;;3.02;1.47;;;;;;;25.03;36.67;99295.48;4242464;81;21083;-85
2022/06/03 15:50:15;;;;;;;3.20;1.60;;;;;;;24.98;36.84;99303.88;4250270;81;21523;-86
2022/06/03 15:56:52;;;;;;;1.98;1.60;;;;;;;24.89;36.77;99300.28;4255012;81;21091;-86
2022/06/03 16:03:13;;;;;;;4.75;1.77;;;;;;;24.71;36.82;99310.84;4263144;81;21067;-84
2022/06/03 16:10:04;;;;;;;3.33;1.50;;;;;;;24.59;37.12;99306.87;4243276;81;21634;-87
2022/06/03 16:16:32;;;;;;;2.73;1.57;;;;;;;24.50;37.03;99306.84;4261265;81;21003;-86
2022/06/03 16:23:10;;;;;;;1.98;1.50;;;;;;;24.44;37.08;99318.49;4233487;79;21010;-86
2022/06/03 16:29:37;;;;;;;2.25;1.52;;;;;;;24.40;37.22;99315.67;4393178;79;21032;-86
2022/06/03 16:35:45;;;;;;;3.05;2.55;;;;;;;24.34;37.50;99318.28;4401947;79;20991;-84
2022/06/03 16:42:30;;;;;;;3.42;2.87;;;;;;;24.25;37.86;99318.25;4411085;80;21007;-85
2022/06/03 16:48:58;;;;;;;3.05;1.80;;;;;;;24.15;37.90;99320.83;4346452;79;20999;-85
2022/06/03 16:55:31;;;;;;;3.00;1.70;;;;;;;24.07;38.01;99330.72;4341142;80;21424;-85
2022/06/03 17:01:47;;;;;;;3.05;1.70;;;;;;;23.99;38.13;99330.06;4392473;80;20960;-85
2022/06/03 17:07:57;;;;;;;2.87;1.47;;;;;;;23.85;38.18;99308.96;4410949;80;21015;-85
2022/06/03 17:14:04;;;;;;;3.40;1.67;;;;;;;23.72;38.36;99309.67;4412023;79;21899;-85
2022/06/03 17:20:37;;;;;;;2.17;1.87;;;;;;;23.60;38.58;99316.09;4413427;79;20980;-85
2022/06/03 17:27:05;;;;;;;3.47;1.80;;;;;;;23.50;38.73;99313.08;4356409;79;20988;-85
2022/06/03 17:33:35;;;;;;;4.05;1.85;;;;;;;23.38;39.00;99305.55;4423049;79;21010;-85
2022/06/03 17:47:02;;;;;;;2.17;1.55;;;;;;;22.97;39.37;99275.80;4270803;82;21004;-85
2022/06/03 18:00:10;;;;;;;3.52;2.20;;;;;;;22.53;39.86;99269.95;4428418;80;20963;-84
2022/06/03 18:06:56;;;;;;;3.25;1.90;;;;;;;22.30;40.09;99266.06;4418947;79;20956;-85
2022/06/03 18:13:09;;;;;;;2.75;1.90;;;;;;;22.11;40.25;99267.70;4275934;82;21499;-85
2022/06/03 18:19:35;;;;;;;8.63;3.10;;;;;;;21.89;40.43;99262.60;4295711;81;21099;-84
2022/06/03 18:26:12;;;;;;;3.35;2.02;;;;;;;21.70;40.65;99263.73;4300319;80;21680;-85
2022/06/03 18:32:35;;;;;;;3.62;2.00;;;;;;;21.52;40.90;99262.66;4401018;79;21051;-84
2022/06/03 18:39:27;;;;;;;5.45;2.22;;;;;;;21.30;41.17;99257.52;4387691;79;20964;-84
2022/06/03 18:45:55;;;;;;;5.87;2.15;;;;;;;21.08;41.50;99252.39;4340742;81;20992;-83
2022/06/03 18:52:37;;;;;;;4.03;2.20;;;;;;;20.86;41.82;99247.94;4353008;79;21614;-84
2022/06/03 18:59:02;;;;;;;3.22;2.15;;;;;;;20.65;42.18;99256.06;4416795;80;21505;-85
2022/06/03 19:12:50;;;;;;;5.37;3.05;;;;;;;20.25;42.95;99280.46;4389404;80;20975;-84
2022/06/03 19:18:57;;;;;;;5.70;3.33;;;;;;;20.01;43.43;99281.17;4410345;80;21008;-85
2022/06/03 19:25:40;;;;;;;10.15;4.20;;;;;;;19.79;43.84;99295.38;4402277;79;20956;-85
2022/06/03 19:31:50;;;;;;;6.12;4.10;;;;;;;19.60;44.31;99282.88;4393261;81;20998;-85
2022/06/03 19:38:43;;;;;;;7.80;4.37;;;;;;;19.42;44.88;99277.67;4366113;79;21007;-84
2022/06/03 19:45:01;;;;;;;10.40;4.45;;;;;;;19.32;45.71;99288.40;4396780;79;20983;-84
2022/06/03 19:51:46;;;;;;;13.78;4.87;;;;;;;19.19;46.70;99301.30;4393694;79;20959;-84
2022/06/03 19:58:17;;;;;;;8.73;4.85;;;;;;;19.11;47.49;99305.41;4365208;80;21015;-84
2022/06/03 20:05:08;;;;;;;6.85;4.47;;;;;;;19.00;47.95;99315.12;4395516;79;20943;-84
2022/06/03 20:17:52;;;;;;;9.60;4.78;;;;;;;18.65;48.47;99305.44;4374714;79;20979;-84
2022/06/03 20:24:46;;;;;;;6.03;4.60;;;;;;;18.42;48.89;99308.16;4386733;79;21082;-83
2022/06/03 20:31:33;;;;;;;7.97;4.00;;;;;;;18.22;49.17;99293.40;4399816;79;21045;-84
2022/06/03 20:38:20;;;;;;;6.90;3.98;;;;;;;18.09;49.42;99289.03;4398252;79;21038;-84
2022/06/03 20:45:03;;;;;;;8.63;4.50;;;;;;;17.86;50.54;99288.97;4400797;80;21114;-84
2022/06/03 20:51:37;;;;;;;9.10;4.35;;;;;;;17.66;50.67;99290.83;4403522;79;21023;-84
2022/06/03 20:57:56;;;;;;;9.80;5.05;;;;;;;17.45;51.07;99281.97;4313940;80;21023;-84
2022/06/03 21:16:50;;;;;;;7.90;4.87;;;;;;;16.83;52.55;99267.81;4387869;79;21013;-84
2022/06/03 21:23:28;;;;;;;8.03;5.22;;;;;;;16.71;52.79;99266.92;4404923;79;22178;-83
2022/06/03 21:29:36;;;;;;;9.35;5.80;;;;;;;16.65;53.67;99260.86;4325250;80;21076;-84
2022/06/03 21:36:19;;;;;;;7.95;5.42;;;;;;;16.47;54.32;99258.86;4427119;79;21422;-83
2022/06/03 21:42:27;;;;;;;8.43;5.40;;;;;;;16.36;54.58;99256.74;4329698;80;21022;-83
2022/06/03 21:49:09;;;;;;;9.10;5.35;;;;;;;16.37;54.73;99261.06;4329825;80;21550;-84
2022/06/03 21:56:01;;;;;;;10.25;5.80;;;;;;;16.35;54.96;99260.71;4332541;80;21623;-84
2022/06/03 22:02:07;;;;;;;10.15;5.83;;;;;;;16.23;55.43;99241.25;4322686;80;22222;-84
2022/06/03 22:08:09;;;;;;;8.58;5.30;;;;;;;16.04;56.35;99243.16;4429580;79;21005;-83
2022/06/03 22:14:22;;;;;;;8.25;5.45;;;;;;;15.99;57.06;99231.78;4432266;79;21022;-84
2022/06/03 22:20:48;;;;;;;8.75;5.22;;;;;;;15.94;56.75;99243.24;4435193;79;22033;-84
2022/06/03 22:27:38;;;;;;;7.75;4.55;;;;;;;15.93;57.21;99246.59;4297576;81;20986;-84
2022/06/03 22:33:52;;;;;;;10.55;5.28;;;;;;;15.84;57.56;99231.66;4299889;82;21044;-83
2022/06/03 22:40:43;;;;;;;7.55;4.50;;;;;;;15.79;57.59;99230.70;4297169;81;21586;-84
2022/06/03 22:46:52;;;;;;;9.65;6.17;;;;;;;15.76;57.94;99232.89;4292602;81;20995;-83
2022/06/03 22:53:06;;;;;;;7.62;4.47;;;;;;;15.80;57.92;99233.67;4277528;81;20991;-84
2022/06/03 22:59:09;;;;;;;9.33;5.53;;;;;;;15.81;58.66;99224.19;4314219;82;21048;-84
2022/06/03 23:05:23;;;;;;;7.12;4.92;;;;;;;15.81;58.56;99225.56;4294693;82;21346;-84
2022/06/03 23:11:32;;;;;;;6.40;4.45;;;;;;;15.86;59.28;99224.56;4301080;81;20997;-84
2022/06/03 23:17:54;;;;;;;6.15;4.30;;;;;;;15.98;60.42;99216.38;4289402;81;21074;-84
2022/06/03 23:23:55;;;;;;;13.08;5.03;;;;;;;16.02;60.71;99218.54;4292041;81;21011;-83
2022/06/03 23:30:03;;;;;;;7.78;4.80;;;;;;;16.04;60.19;99212.79;4299769;81;21587;-83
2022/06/03 23:36:07;;;;;;;8.78;5.58;;;;;;;16.05;61.08;99203.33;4430873;79;20979;-84
2022/06/03 23:48:31;;;;;;;11.08;5.42;;;;;;;16.02;61.85;99195.07;4430733;79;21373;-83
2022/06/03 23:54:33;;;;;;;7.92;5.70;;;;;;;15.84;61.66;99186.91;4420111;79;21101;-83
